createdAt,value
2018-10-06T00:00:46.182Z,96009.14
2018-10-06T00:03:15.015Z,96003.73
2018-10-06T00:05:43.975Z,96006.04
2018-10-06T00:08:12.910Z,96012.31
2018-10-06T00:10:41.717Z,96009.84
2018-10-06T00:13:10.649Z,96013.85
2018-10-06T00:15:39.583Z,96011.72
2018-10-06T00:18:08.384Z,96003.84
2018-10-06T00:20:37.221Z,95998.80
2018-10-06T00:23:06.093Z,96001.27
2018-10-06T00:25:34.894Z,96008.81
2018-10-06T00:28:03.702Z,96002.74
2018-10-06T00:30:32.660Z,96000.61
2018-10-06T00:33:01.509Z,96008.51
2018-10-06T00:35:30.305Z,96004.78
2018-10-06T00:37:59.147Z,96002.48
2018-10-06T00:40:28.065Z,96000.18
2018-10-06T00:42:57.021Z,96003.47
2018-10-06T00:45:26.145Z,95999.55
2018-10-06T00:47:54.980Z,96003.70
2018-10-06T00:50:23.860Z,96003.86
2018-10-06T00:52:52.752Z,96001.08
2018-10-06T00:55:21.605Z,95998.94
2018-10-06T00:57:50.556Z,96007.16
2018-10-06T01:00:19.444Z,96006.21
2018-10-06T01:02:48.366Z,95998.51
2018-10-06T01:05:17.584Z,95995.55
2018-10-06T01:07:46.665Z,96002.94
2018-10-06T01:10:15.572Z,96000.65
2018-10-06T01:12:44.490Z,96000.36
2018-10-06T01:15:13.381Z,96001.36
2018-10-06T01:17:42.293Z,96004.65
2018-10-06T01:20:11.192Z,96006.87
2018-10-06T01:22:40.109Z,96009.66
2018-10-06T01:25:08.973Z,96011.30
2018-10-06T01:27:37.905Z,96005.27
2018-10-06T01:30:06.858Z,96006.92
2018-10-06T01:32:35.659Z,96004.30
2018-10-06T01:35:04.569Z,96008.39
2018-10-06T01:37:33.387Z,96000.07
2018-10-06T01:40:02.334Z,95999.58
2018-10-06T01:42:31.183Z,95994.02
2018-10-06T01:45:00.048Z,95999.63
2018-10-06T01:47:28.964Z,95996.84
2018-10-06T01:49:57.854Z,95996.02
2018-10-06T01:52:26.881Z,95992.57
2018-10-06T01:54:55.818Z,95994.54
2018-10-06T01:57:24.625Z,95996.34
2018-10-06T01:59:53.461Z,95993.89
2018-10-06T02:02:22.413Z,96001.09
2018-10-06T02:04:51.276Z,96004.05
2018-10-06T02:07:20.098Z,96000.77
2018-10-06T02:09:48.905Z,96002.91
2018-10-06T02:12:17.763Z,96002.94
2018-10-06T02:14:46.661Z,96006.38
2018-10-06T02:17:15.533Z,96002.16
2018-10-06T02:19:44.352Z,96003.62
2018-10-06T02:22:13.188Z,96001.69
2018-10-06T02:24:42.085Z,96005.62
2018-10-06T02:27:11.064Z,96007.26
2018-10-06T02:29:40.004Z,96003.81
2018-10-06T02:32:08.780Z,96006.80
2018-10-06T02:34:37.609Z,95997.78
2018-10-06T02:37:06.529Z,95992.05
2018-10-06T02:39:35.357Z,95990.27
2018-10-06T02:42:04.168Z,95988.61
2018-10-06T02:44:32.979Z,95995.81
2018-10-06T02:47:01.921Z,95998.14
2018-10-06T02:49:30.881Z,95993.55
2018-10-06T02:51:59.741Z,95996.52
2018-10-06T02:54:28.585Z,95992.72
2018-10-06T02:56:57.416Z,95995.66
2018-10-06T02:59:26.207Z,95989.28
2018-10-06T03:01:55.074Z,95984.05
2018-10-06T03:04:23.879Z,95987.19
2018-10-06T03:06:52.777Z,95993.22
2018-10-06T03:09:21.705Z,95996.16
2018-10-06T03:11:50.639Z,95990.94
2018-10-06T03:14:19.552Z,95986.04
2018-10-06T03:16:48.378Z,95984.70
2018-10-06T03:19:17.327Z,95983.89
2018-10-06T03:21:46.110Z,95987.02
2018-10-06T03:24:14.917Z,95976.71
2018-10-06T03:26:43.847Z,95981.12
2018-10-06T03:29:12.713Z,95979.48
2018-10-06T03:31:41.572Z,95981.46
2018-10-06T03:34:10.388Z,95986.04
2018-10-06T03:36:39.204Z,95987.02
2018-10-06T03:39:08.497Z,95985.55
2018-10-06T03:41:37.376Z,95986.05
2018-10-06T03:44:06.215Z,95984.75
2018-10-06T03:46:35.088Z,95978.53
2018-10-06T03:49:03.879Z,95978.67
2018-10-06T03:51:32.829Z,95974.24
2018-10-06T03:54:01.756Z,95975.25
2018-10-06T03:56:30.802Z,95976.23
2018-10-06T03:58:59.711Z,95976.72
2018-10-06T04:01:28.723Z,95977.03
2018-10-06T04:03:57.673Z,95975.57
2018-10-06T04:06:26.673Z,95974.61
2018-10-06T04:08:55.472Z,95971.33
2018-10-06T04:11:24.453Z,95972.16
2018-10-06T04:13:53.324Z,95968.72
2018-10-06T04:16:22.263Z,95965.77
2018-10-06T04:18:51.088Z,95969.05
2018-10-06T04:21:19.938Z,95966.42
2018-10-06T04:23:48.809Z,95968.05
2018-10-06T04:26:18.067Z,95967.56
2018-10-06T04:28:46.885Z,95966.09
2018-10-06T04:31:15.680Z,95967.72
2018-10-06T04:33:44.638Z,95960.03
2018-10-06T04:36:13.525Z,95961.84
2018-10-06T04:38:42.412Z,95960.53
2018-10-06T04:41:11.392Z,95955.28
2018-10-06T04:43:40.347Z,95957.91
2018-10-06T04:46:09.489Z,95956.60
2018-10-06T04:48:38.380Z,95961.98
2018-10-06T04:51:07.417Z,95961.99
2018-10-06T04:53:36.302Z,95966.72
2018-10-06T04:56:05.233Z,95966.39
2018-10-06T04:58:34.145Z,95970.97
2018-10-06T05:01:02.997Z,95963.77
2018-10-06T05:03:31.905Z,95972.42
2018-10-06T05:06:00.820Z,95972.92
2018-10-06T05:08:29.638Z,95970.80
2018-10-06T05:10:58.488Z,95975.22
2018-10-06T05:13:27.324Z,95978.17
2018-10-06T05:15:56.197Z,95972.27
2018-10-06T05:18:25.173Z,95972.57
2018-10-06T05:20:54.105Z,95977.49
2018-10-06T05:23:23.066Z,95979.63
2018-10-06T05:25:52.098Z,95983.04
2018-10-06T05:28:20.991Z,95979.08
2018-10-06T05:30:49.828Z,95971.87
2018-10-06T05:33:18.651Z,95968.23
2018-10-06T05:35:47.590Z,95969.67
2018-10-06T05:38:16.685Z,95971.63
2018-10-06T05:40:45.521Z,95984.55
2018-10-06T05:43:14.349Z,95978.92
2018-10-06T05:45:43.168Z,95975.23
2018-10-06T05:48:12.037Z,95974.89
2018-10-06T05:50:40.914Z,95978.67
2018-10-06T05:53:09.729Z,95972.11
2018-10-06T05:55:38.611Z,95975.78
2018-10-06T05:58:07.498Z,95975.92
2018-10-06T06:00:36.396Z,95980.95
2018-10-06T06:03:05.317Z,95980.25
2018-10-06T06:05:34.134Z,95983.63
2018-10-06T06:08:02.988Z,95982.25
2018-10-06T06:10:32.059Z,95986.59
2018-10-06T06:13:01.099Z,95985.53
2018-10-06T06:15:30.047Z,95981.06
2018-10-06T06:17:59.090Z,95976.60
2018-10-06T06:20:27.991Z,95982.45
2018-10-06T06:22:56.808Z,95990.11
2018-10-06T06:25:25.677Z,95990.08
2018-10-06T06:27:54.658Z,95991.31
2018-10-06T06:30:23.541Z,95990.02
2018-10-06T06:32:52.408Z,95991.48
2018-10-06T06:35:21.268Z,95994.09
2018-10-06T06:37:50.672Z,95996.72
2018-10-06T06:40:19.528Z,95998.80
2018-10-06T06:42:48.381Z,95996.58
2018-10-06T06:45:17.320Z,95992.63
2018-10-06T06:47:46.151Z,95999.50
2018-10-06T06:50:15.142Z,95995.38
2018-10-06T06:52:47.465Z,95999.50
2018-10-06T06:55:16.484Z,95996.64
2018-10-06T06:57:45.687Z,95993.88
2018-10-06T07:00:15.025Z,96000.51
2018-10-06T07:02:44.356Z,95995.25
2018-10-06T07:05:13.221Z,95993.48
2018-10-06T07:07:42.297Z,95990.46
2018-10-06T07:10:11.292Z,95991.45
2018-10-06T07:12:40.242Z,95998.04
2018-10-06T07:15:11.098Z,95994.66
2018-10-06T07:17:39.986Z,95998.43
2018-10-06T07:20:08.848Z,96002.41
2018-10-06T07:22:37.690Z,95997.81
2018-10-06T07:25:06.892Z,95997.13
2018-10-06T07:27:35.804Z,95987.93
2018-10-06T07:30:06.189Z,95988.88
2018-10-06T07:32:35.039Z,95986.77
2018-10-06T07:35:04.478Z,95985.38
2018-10-06T07:37:33.456Z,95987.83
2018-10-06T07:40:02.768Z,95977.84
2018-10-06T07:42:31.620Z,95981.34
2018-10-06T07:45:00.541Z,95985.23
2018-10-06T07:47:29.522Z,95977.05
2018-10-06T07:49:58.574Z,95975.16
2018-10-06T07:52:27.479Z,95975.27
2018-10-06T07:54:56.425Z,95977.37
2018-10-06T07:57:25.433Z,95980.27
2018-10-06T07:59:54.352Z,95971.63
2018-10-06T08:02:23.249Z,95968.83
2018-10-06T08:04:52.037Z,95970.22
2018-10-06T08:07:20.941Z,95960.14
2018-10-06T08:09:50.577Z,95961.23
2018-10-06T08:12:20.962Z,95959.25
2018-10-06T08:14:49.992Z,95959.98
2018-10-06T08:17:19.056Z,95958.05
2018-10-06T08:19:48.410Z,95945.81
2018-10-06T08:22:17.716Z,95952.61
2018-10-06T08:24:46.516Z,95937.20
2018-10-06T08:27:15.352Z,95937.66
2018-10-06T08:29:44.279Z,95934.16
2018-10-06T08:32:13.132Z,95930.52
2018-10-06T08:34:41.919Z,95931.33
2018-10-06T08:37:10.728Z,95932.97
2018-10-06T08:39:39.591Z,95925.67
2018-10-06T08:42:08.483Z,95922.03
2018-10-06T08:44:37.345Z,95918.91
2018-10-06T08:47:06.225Z,95915.14
2018-10-06T08:49:35.112Z,95912.24
2018-10-06T08:52:03.895Z,95898.13
2018-10-06T08:54:32.943Z,95898.02
2018-10-06T08:57:01.807Z,95898.41
2018-10-06T08:59:30.604Z,95893.64
2018-10-06T09:01:59.469Z,95888.23
2018-10-06T09:04:28.420Z,95887.03
2018-10-06T09:06:57.365Z,95885.91
2018-10-06T09:09:26.988Z,95877.34
2018-10-06T09:11:55.852Z,95877.44
2018-10-06T09:14:24.710Z,95875.67
2018-10-06T09:16:53.525Z,95873.94
2018-10-06T09:19:22.309Z,95866.72
2018-10-06T09:21:51.168Z,95863.56
2018-10-06T09:24:20.341Z,95855.55
2018-10-06T09:26:49.297Z,95855.63
2018-10-06T09:29:18.080Z,95854.68
2018-10-06T09:31:47.018Z,95853.97
2018-10-06T09:34:15.997Z,95853.33
2018-10-06T09:36:44.925Z,95844.80
2018-10-06T09:39:13.999Z,95844.64
2018-10-06T09:41:42.941Z,95837.88
2018-10-06T09:44:11.773Z,95833.59
2018-10-06T09:46:40.716Z,95823.87
2018-10-06T09:49:09.595Z,95823.83
2018-10-06T09:51:38.562Z,95820.55
2018-10-06T09:54:07.511Z,95819.73
2018-10-06T09:56:36.397Z,95817.58
2018-10-06T09:59:05.223Z,95814.45
2018-10-06T10:01:39.139Z,95811.23
2018-10-06T10:04:11.008Z,95803.31
2018-10-06T10:06:40.836Z,95798.11
2018-10-06T10:09:11.787Z,95797.44
2018-10-06T10:11:40.630Z,95795.91
2018-10-06T10:14:10.034Z,95791.86
2018-10-06T10:16:38.870Z,95777.70
2018-10-06T10:19:07.997Z,95775.61
2018-10-06T10:21:36.864Z,95774.57
2018-10-06T10:24:05.860Z,95761.61
2018-10-06T10:26:35.005Z,95763.80
2018-10-06T10:29:03.883Z,95749.88
2018-10-06T10:31:32.795Z,95750.92
2018-10-06T10:34:01.696Z,95751.05
2018-10-06T10:36:30.559Z,95747.16
2018-10-06T10:38:59.349Z,95741.71
2018-10-06T10:41:28.236Z,95733.59
2018-10-06T10:43:57.130Z,95719.88
2018-10-06T10:46:26.116Z,95713.83
2018-10-06T10:48:55.134Z,95709.87
2018-10-06T10:51:24.021Z,95711.36
2018-10-06T10:53:52.940Z,95702.45
2018-10-06T10:56:21.825Z,95700.24
2018-10-06T10:58:50.806Z,95687.27
2018-10-06T11:01:26.020Z,95687.39
2018-10-06T11:03:54.927Z,95686.25
2018-10-06T11:06:23.923Z,95682.79
2018-10-06T11:08:52.800Z,95677.30
2018-10-06T11:11:22.646Z,95671.37
2018-10-06T11:13:51.726Z,95665.53
2018-10-06T11:16:20.740Z,95658.96
2018-10-06T11:18:49.569Z,95663.46
2018-10-06T11:21:18.377Z,95652.72
2018-10-06T11:23:47.196Z,95647.50
2018-10-06T11:26:16.249Z,95642.88
2018-10-06T11:28:45.024Z,95634.80
2018-10-06T11:31:13.893Z,95636.58
2018-10-06T11:33:42.755Z,95624.91
2018-10-06T11:36:11.585Z,95622.84
2018-10-06T11:38:40.436Z,95608.38
2018-10-06T11:41:09.292Z,95617.63
2018-10-06T11:43:38.264Z,95615.43
2018-10-06T11:46:07.143Z,95611.09
2018-10-06T11:48:35.949Z,95607.91
2018-10-06T11:51:04.815Z,95606.36
2018-10-06T11:53:33.676Z,95597.92
2018-10-06T11:56:02.461Z,95592.55
2018-10-06T11:58:31.376Z,95591.38
2018-10-06T12:01:06.603Z,95576.91
2018-10-06T12:03:35.542Z,95577.84
2018-10-06T12:06:04.371Z,95576.72
2018-10-06T12:08:33.205Z,95570.94
2018-10-06T12:11:02.031Z,95568.16
2018-10-06T12:13:30.869Z,95563.83
2018-10-06T12:16:00.018Z,95562.27
2018-10-06T12:18:28.865Z,95563.30
2018-10-06T12:20:57.787Z,95555.99
2018-10-06T12:23:26.681Z,95555.53
2018-10-06T12:25:55.545Z,95548.88
2018-10-06T12:28:24.517Z,95544.31
2018-10-06T12:30:53.621Z,95536.70
2018-10-06T12:33:23.346Z,95542.31
2018-10-06T12:35:52.149Z,95543.98
2018-10-06T12:38:21.005Z,95539.31
2018-10-06T12:40:49.865Z,95532.61
2018-10-06T12:43:18.666Z,95527.48
2018-10-06T12:45:47.543Z,95524.71
2018-10-06T12:48:16.387Z,95525.75
2018-10-06T12:50:45.266Z,95515.38
2018-10-06T12:53:14.138Z,95518.58
2018-10-06T12:55:42.951Z,95510.64
2018-10-06T12:58:11.801Z,95502.42
2018-10-06T13:00:40.649Z,95499.08
2018-10-06T13:03:09.435Z,95498.78
2018-10-06T13:05:38.325Z,95499.83
2018-10-06T13:08:07.129Z,95489.05
2018-10-06T13:10:35.923Z,95492.52
2018-10-06T13:13:04.737Z,95484.08
2018-10-06T13:15:33.665Z,95488.42
2018-10-06T13:18:02.509Z,95481.86
2018-10-06T13:20:31.364Z,95486.28
2018-10-06T13:23:00.192Z,95482.29
2018-10-06T13:25:29.049Z,95470.58
2018-10-06T13:27:57.934Z,95467.13
2018-10-06T13:30:26.836Z,95461.84
2018-10-06T13:32:55.711Z,95459.42
2018-10-06T13:35:24.569Z,95455.14
2018-10-06T13:37:53.524Z,95455.64
2018-10-06T13:40:22.415Z,95451.37
2018-10-06T13:42:51.893Z,95448.89
2018-10-06T13:45:20.777Z,95454.74
2018-10-06T13:47:49.654Z,95447.56
2018-10-06T13:50:18.482Z,95448.94
2018-10-06T13:52:47.342Z,95448.42
2018-10-06T13:55:16.201Z,95447.67
2018-10-06T13:57:45.090Z,95439.95
2018-10-06T14:00:14.029Z,95442.57
2018-10-06T14:02:43.344Z,95439.95
2018-10-06T14:05:12.196Z,95436.67
2018-10-06T14:07:41.149Z,95440.91
2018-10-06T14:10:09.937Z,95431.30
2018-10-06T14:12:38.700Z,95434.20
2018-10-06T14:15:07.611Z,95433.85
2018-10-06T14:17:36.493Z,95435.42
2018-10-06T14:20:05.379Z,95431.66
2018-10-06T14:22:34.244Z,95432.99
2018-10-06T14:25:03.052Z,95431.14
2018-10-06T14:27:31.941Z,95434.26
2018-10-06T14:30:00.882Z,95435.25
2018-10-06T14:32:29.723Z,95429.86
2018-10-06T14:34:58.785Z,95422.64
2018-10-06T14:37:27.638Z,95422.12
2018-10-06T14:39:56.529Z,95414.94
2018-10-06T14:42:25.371Z,95419.17
2018-10-06T14:44:54.264Z,95413.61
2018-10-06T14:47:23.100Z,95419.98
2018-10-06T14:49:52.071Z,95420.55
2018-10-06T14:52:20.956Z,95415.98
2018-10-06T14:54:49.915Z,95420.45
2018-10-06T14:57:18.732Z,95418.93
2018-10-06T14:59:47.556Z,95411.06
2018-10-06T15:02:16.405Z,95413.88
2018-10-06T15:04:45.308Z,95409.22
2018-10-06T15:07:14.167Z,95412.86
2018-10-06T15:09:43.042Z,95407.94
2018-10-06T15:12:11.841Z,95412.34
2018-10-06T15:14:40.616Z,95409.62
2018-10-06T15:17:09.474Z,95408.45
2018-10-06T15:19:38.365Z,95407.45
2018-10-06T15:22:07.211Z,95403.84
2018-10-06T15:24:36.092Z,95401.91
2018-10-06T15:27:04.989Z,95394.55
2018-10-06T15:29:33.828Z,95402.08
2018-10-06T15:32:02.642Z,95398.27
2018-10-06T15:34:31.465Z,95398.73
2018-10-06T15:37:00.213Z,95397.83
2018-10-06T15:39:29.030Z,95397.68
2018-10-06T15:41:57.816Z,95395.88
2018-10-06T15:44:26.661Z,95389.84
2018-10-06T15:46:55.482Z,95392.33
2018-10-06T15:49:24.321Z,95393.20
2018-10-06T15:51:53.157Z,95395.51
2018-10-06T15:54:21.980Z,95392.69
2018-10-06T15:56:50.900Z,95391.45
2018-10-06T15:59:19.836Z,95394.98
2018-10-06T16:01:48.912Z,95392.52
2018-10-06T16:04:17.967Z,95400.62
2018-10-06T16:06:47.040Z,95393.89
2018-10-06T16:09:15.894Z,95398.84
2018-10-06T16:11:44.706Z,95399.41
2018-10-06T16:14:13.533Z,95400.62
2018-10-06T16:16:42.345Z,95396.17
2018-10-06T16:19:11.137Z,95392.83
2018-10-06T16:21:40.092Z,95395.70
2018-10-06T16:24:09.025Z,95398.61
2018-10-06T16:26:37.891Z,95401.55
2018-10-06T16:29:06.870Z,95388.34
2018-10-06T16:31:35.877Z,95399.12
2018-10-06T16:34:04.821Z,95409.57
2018-10-06T16:36:33.764Z,95403.05
2018-10-06T16:39:02.901Z,95410.48
2018-10-06T16:41:31.737Z,95409.03
2018-10-06T16:44:00.597Z,95406.97
2018-10-06T16:46:29.541Z,95404.79
2018-10-06T16:48:58.440Z,95399.34
2018-10-06T16:51:27.219Z,95396.61
2018-10-06T16:53:56.019Z,95405.24
2018-10-06T16:56:25.202Z,95398.77
2018-10-06T16:58:53.982Z,95397.61
2018-10-06T17:01:22.908Z,95401.72
2018-10-06T17:03:51.889Z,95392.77
2018-10-06T17:06:20.856Z,95389.09
2018-10-06T17:08:49.825Z,95397.34
2018-10-06T17:11:18.662Z,95399.69
2018-10-06T17:13:47.499Z,95401.88
2018-10-06T17:16:16.383Z,95403.34
2018-10-06T17:18:45.197Z,95405.38
2018-10-06T17:21:14.403Z,95396.87
2018-10-06T17:23:44.225Z,95408.80
2018-10-06T17:26:13.518Z,95413.41
2018-10-06T17:28:42.529Z,95405.09
2018-10-06T17:31:11.374Z,95408.20
2018-10-06T17:33:40.303Z,95405.38
2018-10-06T17:36:09.172Z,95418.27
2018-10-06T17:38:38.096Z,95418.39
2018-10-06T17:41:07.153Z,95416.12
2018-10-06T17:43:36.025Z,95418.47
2018-10-06T17:46:05.064Z,95411.03
2018-10-06T17:48:33.872Z,95424.47
2018-10-06T17:51:02.873Z,95425.66
2018-10-06T17:53:37.176Z,95428.55
2018-10-06T17:56:06.228Z,95427.50
2018-10-06T17:58:35.216Z,95431.92
2018-10-06T18:01:04.560Z,95427.23
2018-10-06T18:03:33.361Z,95430.45
2018-10-06T18:06:02.230Z,95427.86
2018-10-06T18:08:31.049Z,95435.55
2018-10-06T18:10:59.849Z,95427.70
2018-10-06T18:13:28.701Z,95425.22
2018-10-06T18:15:57.537Z,95424.46
2018-10-06T18:18:26.379Z,95430.30
2018-10-06T18:20:55.228Z,95430.41
2018-10-06T18:23:24.071Z,95424.92
2018-10-06T18:25:52.983Z,95424.67
2018-10-06T18:28:21.991Z,95419.30
2018-10-06T18:30:50.848Z,95416.05
2018-10-06T18:33:19.700Z,95429.34
2018-10-06T18:35:48.490Z,95418.78
2018-10-06T18:38:17.438Z,95421.53
2018-10-06T18:40:46.324Z,95425.43
2018-10-06T18:43:15.429Z,95425.95
2018-10-06T18:45:44.291Z,95426.19
2018-10-06T18:48:13.094Z,95433.70
2018-10-06T18:50:41.926Z,95433.91
2018-10-06T18:53:10.730Z,95429.79
2018-10-06T18:55:39.656Z,95438.59
2018-10-06T18:58:08.529Z,95438.28
2018-10-06T19:00:37.412Z,95434.32
2018-10-06T19:03:06.479Z,95431.91
2018-10-06T19:05:35.466Z,95423.72
2018-10-06T19:08:04.310Z,95426.56
2018-10-06T19:10:33.213Z,95429.73
2018-10-06T19:13:02.236Z,95425.17
2018-10-06T19:15:31.360Z,95436.85
2018-10-06T19:18:00.329Z,95420.42
2018-10-06T19:20:29.175Z,95421.56
2018-10-06T19:22:58.033Z,95433.62
2018-10-06T19:25:26.982Z,95430.27
2018-10-06T19:27:55.880Z,95434.14
2018-10-06T19:30:24.837Z,95432.61
2018-10-06T19:32:53.648Z,95430.59
2018-10-06T19:35:22.429Z,95442.85
2018-10-06T19:37:51.248Z,95432.60
2018-10-06T19:40:20.054Z,95434.34
2018-10-06T19:42:48.896Z,95433.62
2018-10-06T19:45:17.765Z,95430.98
2018-10-06T19:47:49.383Z,95427.84
2018-10-06T19:50:18.262Z,95430.48
2018-10-06T19:52:47.072Z,95435.14
2018-10-06T19:55:15.960Z,95433.59
2018-10-06T19:57:44.802Z,95429.45
2018-10-06T20:00:13.644Z,95431.77
2018-10-06T20:02:42.764Z,95437.43
2018-10-06T20:05:17.889Z,95441.30
2018-10-06T20:07:46.688Z,95428.33
2018-10-06T20:10:15.523Z,95438.94
2018-10-06T20:12:44.416Z,95431.85
2018-10-06T20:15:13.274Z,95436.73
2018-10-06T20:17:42.048Z,95432.55
2018-10-06T20:20:10.892Z,95426.19
2018-10-06T20:22:39.696Z,95429.91
2018-10-06T20:25:08.482Z,95432.05
2018-10-06T20:27:37.345Z,95429.88
2018-10-06T20:30:07.881Z,95436.84
2018-10-06T20:32:36.666Z,95425.92
2018-10-06T20:35:05.540Z,95425.73
2018-10-06T20:37:34.330Z,95426.50
2018-10-06T20:40:03.165Z,95421.74
2018-10-06T20:42:31.979Z,95421.73
2018-10-06T20:45:00.783Z,95424.37
2018-10-06T20:47:29.729Z,95425.17
2018-10-06T20:49:58.593Z,95417.23
2018-10-06T20:52:27.439Z,95413.89
2018-10-06T20:54:56.228Z,95420.28
2018-10-06T20:57:25.032Z,95423.98
2018-10-06T20:59:53.893Z,95420.23
2018-10-06T21:02:22.743Z,95421.55
2018-10-06T21:04:51.520Z,95421.05
2018-10-06T21:07:20.470Z,95407.49
2018-10-06T21:09:49.289Z,95412.95
2018-10-06T21:12:18.131Z,95416.77
2018-10-06T21:14:46.984Z,95414.69
2018-10-06T21:17:15.985Z,95410.63
2018-10-06T21:19:44.788Z,95406.25
2018-10-06T21:22:13.609Z,95407.36
2018-10-06T21:24:42.413Z,95409.36
2018-10-06T21:27:11.269Z,95402.97
2018-10-06T21:29:40.261Z,95409.11
2018-10-06T21:32:09.613Z,95405.66
2018-10-06T21:34:38.478Z,95407.70
2018-10-06T21:37:07.424Z,95405.35
2018-10-06T21:39:36.209Z,95400.72
2018-10-06T21:42:05.428Z,95403.84
2018-10-06T21:44:34.219Z,95405.14
2018-10-06T21:47:03.100Z,95400.07
2018-10-06T21:49:31.921Z,95403.61
2018-10-06T21:52:00.718Z,95403.20
2018-10-06T21:54:29.567Z,95403.39
2018-10-06T21:56:58.361Z,95397.63
2018-10-06T21:59:27.156Z,95400.07
2018-10-06T22:01:55.986Z,95392.19
2018-10-06T22:04:24.829Z,95392.06
2018-10-06T22:06:53.616Z,95394.79
2018-10-06T22:09:22.518Z,95394.91
2018-10-06T22:11:51.352Z,95384.80
2018-10-06T22:14:20.193Z,95388.12
2018-10-06T22:16:49.023Z,95387.42
2018-10-06T22:19:17.792Z,95387.73
2018-10-06T22:21:46.613Z,95387.55
2018-10-06T22:24:15.380Z,95385.62
2018-10-06T22:26:44.223Z,95383.00
2018-10-06T22:29:13.180Z,95389.19
2018-10-06T22:31:42.168Z,95388.38
2018-10-06T22:34:10.969Z,95389.58
2018-10-06T22:36:39.802Z,95386.66
2018-10-06T22:39:09.796Z,95385.04
2018-10-06T22:41:39.053Z,95391.49
2018-10-06T22:44:07.854Z,95392.69
2018-10-06T22:46:36.698Z,95389.44
2018-10-06T22:49:05.572Z,95396.73
2018-10-06T22:51:34.750Z,95395.80
2018-10-06T22:54:03.560Z,95395.10
2018-10-06T22:56:32.378Z,95393.02
2018-10-06T22:59:01.201Z,95396.96
2018-10-06T23:01:30.041Z,95397.03
2018-10-06T23:03:58.848Z,95397.75
2018-10-06T23:06:27.641Z,95399.06
2018-10-06T23:08:56.392Z,95395.97
2018-10-06T23:11:25.229Z,95399.47
2018-10-06T23:13:54.045Z,95402.98
2018-10-06T23:16:22.870Z,95394.00
2018-10-06T23:18:51.687Z,95401.50
2018-10-06T23:21:20.505Z,95401.72
2018-10-06T23:23:49.403Z,95397.34
2018-10-06T23:26:18.234Z,95400.78
2018-10-06T23:28:47.124Z,95398.44
2018-10-06T23:31:15.962Z,95403.06
2018-10-06T23:33:44.913Z,95411.56
2018-10-06T23:36:13.894Z,95414.53
2018-10-06T23:38:42.684Z,95412.15
2018-10-06T23:41:11.530Z,95413.05
2018-10-06T23:43:40.387Z,95415.67
2018-10-06T23:46:09.496Z,95412.55
2018-10-06T23:48:38.308Z,95407.11
2018-10-06T23:51:07.344Z,95401.86
2018-10-06T23:53:36.144Z,95399.02
2018-10-06T23:56:05.017Z,95394.36
2018-10-06T23:58:33.914Z,95392.10
